sensor_id;sensor_type;location;lat;lon;timestamp;temperature;humidity
5711;DHT22;61291;52.524;13.422;2022-12-18T00:01:34;-1.90;99.90
5711;DHT22;61291;52.524;13.422;2022-12-18T00:04:03;-2.00;99.90
5711;DHT22;61291;52.524;13.422;2022-12-18T00:06:29;-2.00;99.90
5711;DHT22;61291;52.524;13.422;2022-12-18T00:08:56;-2.00;99.90
5711;DHT22;61291;52.524;13.422;2022-12-18T00:11:24;-2.00;99.90
5711;DHT22;61291;52.524;13.422;2022-12-18T00:13:50;-2.10;99.90
5711;DHT22;61291;52.524;13.422;2022-12-18T00:16:18;-2.10;99.90
5711;DHT22;61291;52.524;13.422;2022-12-18T00:18:46;-2.10;99.90
5711;DHT22;61291;52.524;13.422;2022-12-18T00:21:12;-2.10;99.90
5711;DHT22;61291;52.524;13.422;2022-12-18T00:23:39;-2.10;99.90
5711;DHT22;61291;52.524;13.422;2022-12-18T00:26:07;-2.10;99.90
5711;DHT22;61291;52.524;13.422;2022-12-18T00:28:33;-2.20;99.90
5711;DHT22;61291;52.524;13.422;2022-12-18T00:31:08;-2.20;99.90
5711;DHT22;61291;52.524;13.422;2022-12-18T00:33:35;-2.20;99.90
5711;DHT22;61291;52.524;13.422;2022-12-18T00:36:05;-2.20;99.90
5711;DHT22;61291;52.524;13.422;2022-12-18T00:38:31;-2.30;99.90
5711;DHT22;61291;52.524;13.422;2022-12-18T00:40:57;-2.20;99.90
5711;DHT22;61291;52.524;13.422;2022-12-18T00:43:23;-2.20;99.90
5711;DHT22;61291;52.524;13.422;2022-12-18T00:45:48;-2.20;99.90
5711;DHT22;61291;52.524;13.422;2022-12-18T00:48:14;-2.20;99.90
5711;DHT22;61291;52.524;13.422;2022-12-18T00:50:39;-2.20;99.90
5711;DHT22;61291;52.524;13.422;2022-12-18T00:53:05;-2.30;99.90
5711;DHT22;61291;52.524;13.422;2022-12-18T00:55:31;-2.40;99.90
5711;DHT22;61291;52.524;13.422;2022-12-18T00:57:57;-2.50;99.90
5711;DHT22;61291;52.524;13.422;2022-12-18T01:00:22;-2.60;99.90
5711;DHT22;61291;52.524;13.422;2022-12-18T01:02:48;-2.50;99.90
5711;DHT22;61291;52.524;13.422;2022-12-18T01:05:13;-2.60;99.90
5711;DHT22;61291;52.524;13.422;2022-12-18T01:07:39;-2.50;99.90
5711;DHT22;61291;52.524;13.422;2022-12-18T01:10:07;-2.50;99.90
5711;DHT22;61291;52.524;13.422;2022-12-18T01:12:32;-2.50;99.90
5711;DHT22;61291;52.524;13.422;2022-12-18T01:14:58;-2.40;99.90
5711;DHT22;61291;52.524;13.422;2022-12-18T01:17:24;-2.40;99.90
5711;DHT22;61291;52.524;13.422;2022-12-18T01:19:49;-2.40;99.90
5711;DHT22;61291;52.524;13.422;2022-12-18T01:22:15;-2.50;99.90
5711;DHT22;61291;52.524;13.422;2022-12-18T01:24:40;-2.40;99.90
5711;DHT22;61291;52.524;13.422;2022-12-18T01:27:06;-2.40;99.90
5711;DHT22;61291;52.524;13.422;2022-12-18T01:29:32;-2.40;99.90
5711;DHT22;61291;52.524;13.422;2022-12-18T01:31:57;-2.50;99.90
5711;DHT22;61291;52.524;13.422;2022-12-18T01:34:24;-2.50;99.90
5711;DHT22;61291;52.524;13.422;2022-12-18T01:36:49;-2.50;99.90
5711;DHT22;61291;52.524;13.422;2022-12-18T01:39:18;-2.60;99.90
5711;DHT22;61291;52.524;13.422;2022-12-18T01:41:44;-2.60;99.90
5711;DHT22;61291;52.524;13.422;2022-12-18T01:47:51;-2.60;99.90
5711;DHT22;61291;52.524;13.422;2022-12-18T01:50:30;-2.60;99.90
5711;DHT22;61291;52.524;13.422;2022-12-18T01:53:13;-2.60;99.90
5711;DHT22;61291;52.524;13.422;2022-12-18T01:55:50;-2.60;99.90
5711;DHT22;61291;52.524;13.422;2022-12-18T01:58:17;-2.60;99.90
5711;DHT22;61291;52.524;13.422;2022-12-18T02:00:43;-2.60;99.90
5711;DHT22;61291;52.524;13.422;2022-12-18T02:03:09;-2.70;99.90
5711;DHT22;61291;52.524;13.422;2022-12-18T02:05:46;-2.70;99.90
5711;DHT22;61291;52.524;13.422;2022-12-18T02:13:19;-2.80;99.90
5711;DHT22;61291;52.524;13.422;2022-12-18T02:16:01;-2.80;99.90
5711;DHT22;61291;52.524;13.422;2022-12-18T02:18:35;-2.80;99.90
5711;DHT22;61291;52.524;13.422;2022-12-18T02:21:36;-2.80;99.90
5711;DHT22;61291;52.524;13.422;2022-12-18T02:24:24;-2.80;99.90
5711;DHT22;61291;52.524;13.422;2022-12-18T02:26:58;-2.80;99.90
5711;DHT22;61291;52.524;13.422;2022-12-18T02:29:33;-2.80;99.90
5711;DHT22;61291;52.524;13.422;2022-12-18T02:31:59;-2.80;99.90
5711;DHT22;61291;52.524;13.422;2022-12-18T02:34:31;-2.80;99.90
5711;DHT22;61291;52.524;13.422;2022-12-18T02:37:00;-2.80;99.90
5711;DHT22;61291;52.524;13.422;2022-12-18T02:39:29;-2.80;99.90
5711;DHT22;61291;52.524;13.422;2022-12-18T02:41:57;-2.80;99.90
5711;DHT22;61291;52.524;13.422;2022-12-18T02:44:22;-2.80;99.90
5711;DHT22;61291;52.524;13.422;2022-12-18T02:46:52;-2.80;99.90
5711;DHT22;61291;52.524;13.422;2022-12-18T02:52:39;-2.80;99.90
5711;DHT22;61291;52.524;13.422;2022-12-18T02:55:22;-2.90;99.90
5711;DHT22;61291;52.524;13.422;2022-12-18T02:58:16;-2.90;99.90
5711;DHT22;61291;52.524;13.422;2022-12-18T03:00:51;-2.90;99.90
5711;DHT22;61291;52.524;13.422;2022-12-18T03:03:36;-2.90;99.90
5711;DHT22;61291;52.524;13.422;2022-12-18T03:06:08;-2.90;99.90
5711;DHT22;61291;52.524;13.422;2022-12-18T03:08:42;-2.90;99.90
5711;DHT22;61291;52.524;13.422;2022-12-18T03:11:12;-2.90;99.90
5711;DHT22;61291;52.524;13.422;2022-12-18T03:13:52;-2.90;99.90
5711;DHT22;61291;52.524;13.422;2022-12-18T03:16:24;-2.90;99.90
5711;DHT22;61291;52.524;13.422;2022-12-18T03:18:56;-2.90;99.90
5711;DHT22;61291;52.524;13.422;2022-12-18T03:21:28;-3.00;99.90
5711;DHT22;61291;52.524;13.422;2022-12-18T03:23:55;-3.00;99.90
5711;DHT22;61291;52.524;13.422;2022-12-18T03:26:24;-3.00;99.90
5711;DHT22;61291;52.524;13.422;2022-12-18T03:28:58;-3.00;99.90
5711;DHT22;61291;52.524;13.422;2022-12-18T03:31:26;-3.00;99.90
5711;DHT22;61291;52.524;13.422;2022-12-18T03:33:55;-3.00;99.90
5711;DHT22;61291;52.524;13.422;2022-12-18T03:36:21;-3.00;99.90
5711;DHT22;61291;52.524;13.422;2022-12-18T03:38:47;-2.90;99.90
5711;DHT22;61291;52.524;13.422;2022-12-18T03:41:28;-2.90;99.90
5711;DHT22;61291;52.524;13.422;2022-12-18T03:44:13;-2.90;99.90
5711;DHT22;61291;52.524;13.422;2022-12-18T03:49:12;-3.00;99.90
5711;DHT22;61291;52.524;13.422;2022-12-18T03:51:47;-3.00;99.90
5711;DHT22;61291;52.524;13.422;2022-12-18T03:54:15;-3.00;99.90
5711;DHT22;61291;52.524;13.422;2022-12-18T03:56:48;-3.00;99.90
5711;DHT22;61291;52.524;13.422;2022-12-18T03:59:17;-3.00;99.90
5711;DHT22;61291;52.524;13.422;2022-12-18T04:01:47;-3.10;99.90
5711;DHT22;61291;52.524;13.422;2022-12-18T04:04:16;-3.10;99.90
5711;DHT22;61291;52.524;13.422;2022-12-18T04:06:43;-3.10;99.90
5711;DHT22;61291;52.524;13.422;2022-12-18T04:09:10;-3.20;99.90
5711;DHT22;61291;52.524;13.422;2022-12-18T04:11:36;-3.20;99.90
5711;DHT22;61291;52.524;13.422;2022-12-18T04:14:01;-3.20;99.90
5711;DHT22;61291;52.524;13.422;2022-12-18T04:16:27;-3.20;99.90
5711;DHT22;61291;52.524;13.422;2022-12-18T04:18:53;-3.30;99.90
5711;DHT22;61291;52.524;13.422;2022-12-18T04:21:19;-3.20;99.90
5711;DHT22;61291;52.524;13.422;2022-12-18T04:23:44;-3.30;99.90
5711;DHT22;61291;52.524;13.422;2022-12-18T04:26:10;-3.30;99.90
5711;DHT22;61291;52.524;13.422;2022-12-18T04:28:35;-3.30;99.90
5711;DHT22;61291;52.524;13.422;2022-12-18T04:31:01;-3.20;99.90
5711;DHT22;61291;52.524;13.422;2022-12-18T04:33:27;-3.20;99.90
5711;DHT22;61291;52.524;13.422;2022-12-18T04:35:53;-3.30;99.90
5711;DHT22;61291;52.524;13.422;2022-12-18T04:38:18;-3.30;99.90
5711;DHT22;61291;52.524;13.422;2022-12-18T04:40:44;-3.40;99.90
5711;DHT22;61291;52.524;13.422;2022-12-18T04:43:09;-3.40;99.90
5711;DHT22;61291;52.524;13.422;2022-12-18T04:45:35;-3.40;99.90
5711;DHT22;61291;52.524;13.422;2022-12-18T04:48:02;-3.40;99.90
5711;DHT22;61291;52.524;13.422;2022-12-18T04:50:27;-3.40;99.90
5711;DHT22;61291;52.524;13.422;2022-12-18T04:52:53;-3.40;99.90
5711;DHT22;61291;52.524;13.422;2022-12-18T04:55:19;-3.30;99.90
5711;DHT22;61291;52.524;13.422;2022-12-18T04:57:45;-3.30;99.90
5711;DHT22;61291;52.524;13.422;2022-12-18T05:00:11;-3.30;99.90
5711;DHT22;61291;52.524;13.422;2022-12-18T05:02:36;-3.30;99.90
5711;DHT22;61291;52.524;13.422;2022-12-18T05:05:02;-3.30;99.90
5711;DHT22;61291;52.524;13.422;2022-12-18T05:07:27;-3.30;99.90
5711;DHT22;61291;52.524;13.422;2022-12-18T05:09:53;-3.40;99.90
5711;DHT22;61291;52.524;13.422;2022-12-18T05:12:18;-3.40;99.90
5711;DHT22;61291;52.524;13.422;2022-12-18T05:14:44;-3.50;99.90
5711;DHT22;61291;52.524;13.422;2022-12-18T05:17:09;-3.50;99.90
5711;DHT22;61291;52.524;13.422;2022-12-18T05:19:38;-3.50;99.90
5711;DHT22;61291;52.524;13.422;2022-12-18T05:22:03;-3.50;99.90
5711;DHT22;61291;52.524;13.422;2022-12-18T05:24:29;-3.50;99.90
5711;DHT22;61291;52.524;13.422;2022-12-18T05:26:54;-3.40;99.90
5711;DHT22;61291;52.524;13.422;2022-12-18T05:29:20;-3.40;99.90
5711;DHT22;61291;52.524;13.422;2022-12-18T05:31:45;-3.40;99.90
5711;DHT22;61291;52.524;13.422;2022-12-18T05:34:11;-3.40;99.90
5711;DHT22;61291;52.524;13.422;2022-12-18T05:36:36;-3.40;99.90
5711;DHT22;61291;52.524;13.422;2022-12-18T05:39:02;-3.40;99.90
5711;DHT22;61291;52.524;13.422;2022-12-18T05:41:28;-3.30;99.90
5711;DHT22;61291;52.524;13.422;2022-12-18T05:43:54;-3.40;99.90
5711;DHT22;61291;52.524;13.422;2022-12-18T05:46:20;-3.30;99.90
5711;DHT22;61291;52.524;13.422;2022-12-18T05:48:45;-3.40;99.90
5711;DHT22;61291;52.524;13.422;2022-12-18T05:51:14;-3.40;99.90
5711;DHT22;61291;52.524;13.422;2022-12-18T05:53:40;-3.30;99.90
5711;DHT22;61291;52.524;13.422;2022-12-18T05:56:08;-3.40;99.90
5711;DHT22;61291;52.524;13.422;2022-12-18T05:58:34;-3.30;99.90
5711;DHT22;61291;52.524;13.422;2022-12-18T06:01:21;-3.40;99.90
5711;DHT22;61291;52.524;13.422;2022-12-18T06:03:47;-3.40;99.90
5711;DHT22;61291;52.524;13.422;2022-12-18T06:06:21;-3.40;99.90
5711;DHT22;61291;52.524;13.422;2022-12-18T06:08:47;-3.30;99.90
5711;DHT22;61291;52.524;13.422;2022-12-18T06:11:15;-3.30;99.90
5711;DHT22;61291;52.524;13.422;2022-12-18T06:13:41;-3.30;99.90
5711;DHT22;61291;52.524;13.422;2022-12-18T06:16:07;-3.30;99.90
5711;DHT22;61291;52.524;13.422;2022-12-18T06:18:33;-3.30;99.90
5711;DHT22;61291;52.524;13.422;2022-12-18T06:20:59;-3.20;99.90
5711;DHT22;61291;52.524;13.422;2022-12-18T06:23:25;-3.20;99.90
5711;DHT22;61291;52.524;13.422;2022-12-18T06:25:51;-3.20;99.90
5711;DHT22;61291;52.524;13.422;2022-12-18T06:28:16;-3.20;99.90
5711;DHT22;61291;52.524;13.422;2022-12-18T06:30:46;-3.20;99.90
5711;DHT22;61291;52.524;13.422;2022-12-18T06:33:12;-3.20;99.90
5711;DHT22;61291;52.524;13.422;2022-12-18T06:35:38;-3.10;99.90
5711;DHT22;61291;52.524;13.422;2022-12-18T06:38:03;-3.10;99.90
5711;DHT22;61291;52.524;13.422;2022-12-18T06:40:29;-3.10;99.90
5711;DHT22;61291;52.524;13.422;2022-12-18T06:42:54;-3.10;99.90
5711;DHT22;61291;52.524;13.422;2022-12-18T06:45:20;-3.10;99.90
5711;DHT22;61291;52.524;13.422;2022-12-18T06:47:45;-3.10;99.90
5711;DHT22;61291;52.524;13.422;2022-12-18T06:50:11;-3.10;99.90
5711;DHT22;61291;52.524;13.422;2022-12-18T06:52:37;-3.10;99.90
5711;DHT22;61291;52.524;13.422;2022-12-18T06:55:04;-3.10;99.90
5711;DHT22;61291;52.524;13.422;2022-12-18T06:57:30;-3.10;99.90
5711;DHT22;61291;52.524;13.422;2022-12-18T06:59:55;-3.10;99.90
5711;DHT22;61291;52.524;13.422;2022-12-18T07:02:21;-3.10;99.90
5711;DHT22;61291;52.524;13.422;2022-12-18T07:04:49;-3.10;99.90
5711;DHT22;61291;52.524;13.422;2022-12-18T07:07:14;-3.00;99.90
5711;DHT22;61291;52.524;13.422;2022-12-18T07:09:40;-3.00;99.90
5711;DHT22;61291;52.524;13.422;2022-12-18T07:12:05;-3.00;99.90
5711;DHT22;61291;52.524;13.422;2022-12-18T07:14:32;-2.90;99.90
5711;DHT22;61291;52.524;13.422;2022-12-18T07:16:57;-2.90;99.90
5711;DHT22;61291;52.524;13.422;2022-12-18T07:19:22;-2.90;99.90
5711;DHT22;61291;52.524;13.422;2022-12-18T07:21:50;-2.90;99.90
5711;DHT22;61291;52.524;13.422;2022-12-18T07:24:15;-2.90;99.90
5711;DHT22;61291;52.524;13.422;2022-12-18T07:26:41;-2.90;99.90
5711;DHT22;61291;52.524;13.422;2022-12-18T07:29:06;-2.90;99.90
5711;DHT22;61291;52.524;13.422;2022-12-18T07:31:32;-2.80;99.90
5711;DHT22;61291;52.524;13.422;2022-12-18T07:33:57;-2.90;99.90
5711;DHT22;61291;52.524;13.422;2022-12-18T07:36:22;-2.90;99.90
5711;DHT22;61291;52.524;13.422;2022-12-18T07:38:49;-2.80;99.90
5711;DHT22;61291;52.524;13.422;2022-12-18T07:41:14;-2.80;99.90
5711;DHT22;61291;52.524;13.422;2022-12-18T07:43:41;-2.80;99.90
5711;DHT22;61291;52.524;13.422;2022-12-18T07:46:07;-2.80;99.90
5711;DHT22;61291;52.524;13.422;2022-12-18T07:48:33;-2.80;99.90
5711;DHT22;61291;52.524;13.422;2022-12-18T07:51:00;-2.70;99.90
5711;DHT22;61291;52.524;13.422;2022-12-18T07:53:26;-2.70;99.90
5711;DHT22;61291;52.524;13.422;2022-12-18T07:55:59;-2.60;99.90
5711;DHT22;61291;52.524;13.422;2022-12-18T07:58:25;-2.60;99.90
5711;DHT22;61291;52.524;13.422;2022-12-18T08:00:50;-2.60;99.90
5711;DHT22;61291;52.524;13.422;2022-12-18T08:03:16;-2.60;99.90
5711;DHT22;61291;52.524;13.422;2022-12-18T08:05:41;-2.50;99.90
5711;DHT22;61291;52.524;13.422;2022-12-18T08:08:07;-2.50;99.90
5711;DHT22;61291;52.524;13.422;2022-12-18T08:10:32;-2.50;99.90
5711;DHT22;61291;52.524;13.422;2022-12-18T08:12:58;-2.40;99.90
5711;DHT22;61291;52.524;13.422;2022-12-18T08:15:23;-2.40;99.90
5711;DHT22;61291;52.524;13.422;2022-12-18T08:17:49;-2.30;99.90
5711;DHT22;61291;52.524;13.422;2022-12-18T08:20:14;-2.20;99.90
5711;DHT22;61291;52.524;13.422;2022-12-18T08:22:41;-2.20;99.90
5711;DHT22;61291;52.524;13.422;2022-12-18T08:25:07;-2.10;99.90
5711;DHT22;61291;52.524;13.422;2022-12-18T08:27:33;-2.20;99.90
5711;DHT22;61291;52.524;13.422;2022-12-18T08:29:58;-2.10;99.90
5711;DHT22;61291;52.524;13.422;2022-12-18T08:32:25;-2.10;99.90
5711;DHT22;61291;52.524;13.422;2022-12-18T08:34:51;-2.10;99.90
5711;DHT22;61291;52.524;13.422;2022-12-18T08:37:16;-2.00;99.90
5711;DHT22;61291;52.524;13.422;2022-12-18T08:39:42;-2.00;99.90
5711;DHT22;61291;52.524;13.422;2022-12-18T08:42:07;-1.90;99.90
5711;DHT22;61291;52.524;13.422;2022-12-18T08:44:51;-1.90;99.90
5711;DHT22;61291;52.524;13.422;2022-12-18T08:47:17;-1.80;99.90
5711;DHT22;61291;52.524;13.422;2022-12-18T08:49:42;-1.70;99.90
5711;DHT22;61291;52.524;13.422;2022-12-18T08:52:08;-1.60;99.90
5711;DHT22;61291;52.524;13.422;2022-12-18T08:54:34;-1.60;99.90
5711;DHT22;61291;52.524;13.422;2022-12-18T08:56:59;-1.60;99.90
5711;DHT22;61291;52.524;13.422;2022-12-18T08:59:25;-1.50;99.90
5711;DHT22;61291;52.524;13.422;2022-12-18T09:01:53;-1.50;99.90
5711;DHT22;61291;52.524;13.422;2022-12-18T09:04:19;-1.40;99.90
5711;DHT22;61291;52.524;13.422;2022-12-18T09:06:44;-1.30;99.90
5711;DHT22;61291;52.524;13.422;2022-12-18T09:09:10;-1.30;99.90
5711;DHT22;61291;52.524;13.422;2022-12-18T09:11:36;-1.20;99.90
5711;DHT22;61291;52.524;13.422;2022-12-18T09:14:01;-1.30;99.90
5711;DHT22;61291;52.524;13.422;2022-12-18T09:16:28;-1.20;99.90
5711;DHT22;61291;52.524;13.422;2022-12-18T09:18:57;-1.20;99.90
5711;DHT22;61291;52.524;13.422;2022-12-18T09:21:31;-1.10;99.90
5711;DHT22;61291;52.524;13.422;2022-12-18T09:23:59;-1.10;99.90
5711;DHT22;61291;52.524;13.422;2022-12-18T09:26:26;-1.00;99.90
5711;DHT22;61291;52.524;13.422;2022-12-18T09:28:52;-1.00;99.90
5711;DHT22;61291;52.524;13.422;2022-12-18T09:31:20;-0.90;99.90
5711;DHT22;61291;52.524;13.422;2022-12-18T09:33:46;-0.80;99.90
5711;DHT22;61291;52.524;13.422;2022-12-18T09:36:13;-0.70;99.90
5711;DHT22;61291;52.524;13.422;2022-12-18T09:38:39;-0.60;99.90
5711;DHT22;61291;52.524;13.422;2022-12-18T09:43:54;-0.50;99.90
5711;DHT22;61291;52.524;13.422;2022-12-18T09:46:31;-0.40;99.90
5711;DHT22;61291;52.524;13.422;2022-12-18T09:49:01;-0.40;99.90
5711;DHT22;61291;52.524;13.422;2022-12-18T09:51:36;-0.40;99.90
5711;DHT22;61291;52.524;13.422;2022-12-18T09:54:05;-0.50;99.90
5711;DHT22;61291;52.524;13.422;2022-12-18T09:56:40;-0.50;99.90
5711;DHT22;61291;52.524;13.422;2022-12-18T09:59:05;-0.50;99.90
5711;DHT22;61291;52.524;13.422;2022-12-18T10:01:32;-0.50;99.90
5711;DHT22;61291;52.524;13.422;2022-12-18T10:03:58;-0.50;99.90
5711;DHT22;61291;52.524;13.422;2022-12-18T10:06:42;-0.30;99.90
5711;DHT22;61291;52.524;13.422;2022-12-18T10:12:03;-0.10;99.90
5711;DHT22;61291;52.524;13.422;2022-12-18T10:14:41;-0.20;99.90
5711;DHT22;61291;52.524;13.422;2022-12-18T10:17:29;-0.20;99.90
5711;DHT22;61291;52.524;13.422;2022-12-18T10:20:13;-0.20;99.90
5711;DHT22;61291;52.524;13.422;2022-12-18T10:22:57;-0.10;99.90
5711;DHT22;61291;52.524;13.422;2022-12-18T10:25:29;0.00;99.90
5711;DHT22;61291;52.524;13.422;2022-12-18T10:28:11;0.10;99.90
5711;DHT22;61291;52.524;13.422;2022-12-18T10:30:38;0.30;99.90
5711;DHT22;61291;52.524;13.422;2022-12-18T10:33:04;0.40;99.90
5711;DHT22;61291;52.524;13.422;2022-12-18T10:35:30;0.40;99.90
5711;DHT22;61291;52.524;13.422;2022-12-18T10:38:07;0.50;99.90
5711;DHT22;61291;52.524;13.422;2022-12-18T10:41:01;0.60;99.90
5711;DHT22;61291;52.524;13.422;2022-12-18T10:43:37;0.70;99.90
5711;DHT22;61291;52.524;13.422;2022-12-18T10:51:29;1.00;99.90
5711;DHT22;61291;52.524;13.422;2022-12-18T10:54:04;0.90;99.90
5711;DHT22;61291;52.524;13.422;2022-12-18T10:56:34;1.00;99.90
5711;DHT22;61291;52.524;13.422;2022-12-18T10:59:03;1.10;99.90
5711;DHT22;61291;52.524;13.422;2022-12-18T11:01:57;1.00;99.90
5711;DHT22;61291;52.524;13.422;2022-12-18T11:04:28;1.00;99.90
5711;DHT22;61291;52.524;13.422;2022-12-18T11:07:07;1.00;99.90
5711;DHT22;61291;52.524;13.422;2022-12-18T11:09:38;0.90;99.90
5711;DHT22;61291;52.524;13.422;2022-12-18T11:12:15;0.80;99.90
5711;DHT22;61291;52.524;13.422;2022-12-18T11:14:45;0.80;99.90
5711;DHT22;61291;52.524;13.422;2022-12-18T11:17:34;0.70;99.90
5711;DHT22;61291;52.524;13.422;2022-12-18T11:20:04;0.70;99.90
5711;DHT22;61291;52.524;13.422;2022-12-18T11:22:31;0.60;99.90
5711;DHT22;61291;52.524;13.422;2022-12-18T11:25:00;0.70;99.90
5711;DHT22;61291;52.524;13.422;2022-12-18T11:27:26;0.60;99.90
5711;DHT22;61291;52.524;13.422;2022-12-18T11:30:21;0.60;99.90
5711;DHT22;61291;52.524;13.422;2022-12-18T11:32:49;0.60;99.90
5711;DHT22;61291;52.524;13.422;2022-12-18T11:35:20;0.60;99.90
5711;DHT22;61291;52.524;13.422;2022-12-18T11:37:54;0.70;99.90
5711;DHT22;61291;52.524;13.422;2022-12-18T11:40:30;0.70;99.90
5711;DHT22;61291;52.524;13.422;2022-12-18T11:43:18;0.60;99.90
5711;DHT22;61291;52.524;13.422;2022-12-18T11:45:53;0.60;99.90
5711;DHT22;61291;52.524;13.422;2022-12-18T11:48:27;0.50;99.90
5711;DHT22;61291;52.524;13.422;2022-12-18T11:50:57;0.30;99.90
5711;DHT22;61291;52.524;13.422;2022-12-18T11:53:25;0.30;99.90
5711;DHT22;61291;52.524;13.422;2022-12-18T11:58:54;0.10;99.90
5711;DHT22;61291;52.524;13.422;2022-12-18T12:06:57;0.30;99.90
5711;DHT22;61291;52.524;13.422;2022-12-18T12:09:50;0.30;99.90
5711;DHT22;61291;52.524;13.422;2022-12-18T12:15:17;0.20;99.90
5711;DHT22;61291;52.524;13.422;2022-12-18T12:18:21;0.20;99.90
5711;DHT22;61291;52.524;13.422;2022-12-18T12:21:15;0.10;99.90
5711;DHT22;61291;52.524;13.422;2022-12-18T12:26:45;0.20;99.90
5711;DHT22;61291;52.524;13.422;2022-12-18T12:29:31;0.30;99.90
5711;DHT22;61291;52.524;13.422;2022-12-18T12:38:21;0.20;99.90
5711;DHT22;61291;52.524;13.422;2022-12-18T12:40:56;0.00;99.90
5711;DHT22;61291;52.524;13.422;2022-12-18T12:43:42;-0.10;99.90
5711;DHT22;61291;52.524;13.422;2022-12-18T12:46:11;-0.10;99.90
5711;DHT22;61291;52.524;13.422;2022-12-18T12:49:01;-0.10;99.90
5711;DHT22;61291;52.524;13.422;2022-12-18T12:51:32;0.00;99.90
5711;DHT22;61291;52.524;13.422;2022-12-18T12:53:59;0.00;99.90
5711;DHT22;61291;52.524;13.422;2022-12-18T12:59:30;0.10;99.90
5711;DHT22;61291;52.524;13.422;2022-12-18T13:04:58;0.00;99.90
5711;DHT22;61291;52.524;13.422;2022-12-18T13:07:38;0.10;99.90
5711;DHT22;61291;52.524;13.422;2022-12-18T13:10:22;0.00;99.90
5711;DHT22;61291;52.524;13.422;2022-12-18T13:12:55;0.00;99.90
5711;DHT22;61291;52.524;13.422;2022-12-18T13:15:24;0.00;99.90
5711;DHT22;61291;52.524;13.422;2022-12-18T13:20:37;-0.20;99.90
5711;DHT22;61291;52.524;13.422;2022-12-18T13:25:48;-0.10;99.90
5711;DHT22;61291;52.524;13.422;2022-12-18T13:29:00;-0.10;99.90
5711;DHT22;61291;52.524;13.422;2022-12-18T13:31:01;0.00;99.90
5711;DHT22;61291;52.524;13.422;2022-12-18T13:36:12;0.20;99.90
5711;DHT22;61291;52.524;13.422;2022-12-18T13:38:38;0.20;99.90
5711;DHT22;61291;52.524;13.422;2022-12-18T13:41:25;0.20;99.90
5711;DHT22;61291;52.524;13.422;2022-12-18T13:43:55;0.20;99.90
5711;DHT22;61291;52.524;13.422;2022-12-18T13:46:28;0.10;99.90
5711;DHT22;61291;52.524;13.422;2022-12-18T13:49:17;0.00;99.90
5711;DHT22;61291;52.524;13.422;2022-12-18T13:51:51;-0.20;99.90
5711;DHT22;61291;52.524;13.422;2022-12-18T13:54:34;-0.30;99.90
5711;DHT22;61291;52.524;13.422;2022-12-18T13:57:00;-0.30;99.90
5711;DHT22;61291;52.524;13.422;2022-12-18T13:59:37;-0.40;99.90
5711;DHT22;61291;52.524;13.422;2022-12-18T14:02:17;-0.50;99.90
5711;DHT22;61291;52.524;13.422;2022-12-18T14:04:46;-0.60;99.90
5711;DHT22;61291;52.524;13.422;2022-12-18T14:07:24;-0.80;99.90
5711;DHT22;61291;52.524;13.422;2022-12-18T14:09:58;-0.80;99.90
5711;DHT22;61291;52.524;13.422;2022-12-18T14:12:26;-0.80;99.90
5711;DHT22;61291;52.524;13.422;2022-12-18T14:18:00;-0.70;99.90
5711;DHT22;61291;52.524;13.422;2022-12-18T14:20:27;-0.70;99.90
5711;DHT22;61291;52.524;13.422;2022-12-18T14:22:54;-0.70;99.90
5711;DHT22;61291;52.524;13.422;2022-12-18T14:25:26;-0.70;99.90
5711;DHT22;61291;52.524;13.422;2022-12-18T14:28:07;-0.60;99.90
5711;DHT22;61291;52.524;13.422;2022-12-18T14:30:39;-0.60;99.90
5711;DHT22;61291;52.524;13.422;2022-12-18T14:35:32;-0.60;99.90
5711;DHT22;61291;52.524;13.422;2022-12-18T14:38:18;-0.60;99.90
5711;DHT22;61291;52.524;13.422;2022-12-18T14:40:45;-0.70;99.90
5711;DHT22;61291;52.524;13.422;2022-12-18T14:43:11;-0.70;99.90
5711;DHT22;61291;52.524;13.422;2022-12-18T14:45:39;-0.70;99.90
5711;DHT22;61291;52.524;13.422;2022-12-18T14:48:19;-0.80;99.90
5711;DHT22;61291;52.524;13.422;2022-12-18T14:50:54;-0.80;99.90
5711;DHT22;61291;52.524;13.422;2022-12-18T14:53:49;-1.10;99.90
5711;DHT22;61291;52.524;13.422;2022-12-18T14:56:24;-1.20;99.90
5711;DHT22;61291;52.524;13.422;2022-12-18T14:58:54;-1.10;99.90
5711;DHT22;61291;52.524;13.422;2022-12-18T15:01:37;-1.20;99.90
5711;DHT22;61291;52.524;13.422;2022-12-18T15:04:05;-1.30;99.90
5711;DHT22;61291;52.524;13.422;2022-12-18T15:06:47;-1.30;99.90
5711;DHT22;61291;52.524;13.422;2022-12-18T15:09:24;-1.30;99.90
5711;DHT22;61291;52.524;13.422;2022-12-18T15:11:58;-1.30;99.90
5711;DHT22;61291;52.524;13.422;2022-12-18T15:14:48;-1.40;99.90
5711;DHT22;61291;52.524;13.422;2022-12-18T15:17:18;-1.40;99.90
5711;DHT22;61291;52.524;13.422;2022-12-18T15:19:45;-1.40;99.90
5711;DHT22;61291;52.524;13.422;2022-12-18T15:22:21;-1.40;99.90
5711;DHT22;61291;52.524;13.422;2022-12-18T15:24:48;-1.30;99.90
5711;DHT22;61291;52.524;13.422;2022-12-18T15:27:31;-1.20;99.90
5711;DHT22;61291;52.524;13.422;2022-12-18T15:32:36;-1.30;99.90
5711;DHT22;61291;52.524;13.422;2022-12-18T15:37:36;-1.30;99.90
5711;DHT22;61291;52.524;13.422;2022-12-18T15:40:02;-1.30;99.90
5711;DHT22;61291;52.524;13.422;2022-12-18T15:42:29;-1.30;99.90
5711;DHT22;61291;52.524;13.422;2022-12-18T15:45:13;-1.30;99.90
5711;DHT22;61291;52.524;13.422;2022-12-18T15:47:39;-1.40;99.90
5711;DHT22;61291;52.524;13.422;2022-12-18T15:50:05;-1.40;99.90
5711;DHT22;61291;52.524;13.422;2022-12-18T15:52:43;-1.40;99.90
5711;DHT22;61291;52.524;13.422;2022-12-18T15:55:13;-1.40;99.90
5711;DHT22;61291;52.524;13.422;2022-12-18T15:57:58;-1.30;99.90
5711;DHT22;61291;52.524;13.422;2022-12-18T16:00:23;-1.30;99.90
5711;DHT22;61291;52.524;13.422;2022-12-18T16:02:49;-1.30;99.90
5711;DHT22;61291;52.524;13.422;2022-12-18T16:05:16;-1.30;99.90
5711;DHT22;61291;52.524;13.422;2022-12-18T16:07:42;-1.30;99.90
5711;DHT22;61291;52.524;13.422;2022-12-18T16:10:08;-1.40;99.90
5711;DHT22;61291;52.524;13.422;2022-12-18T16:12:34;-1.50;99.90
5711;DHT22;61291;52.524;13.422;2022-12-18T16:15:00;-1.60;99.90
5711;DHT22;61291;52.524;13.422;2022-12-18T16:17:25;-1.60;99.90
5711;DHT22;61291;52.524;13.422;2022-12-18T16:19:51;-1.60;99.90
5711;DHT22;61291;52.524;13.422;2022-12-18T16:22:25;-1.60;99.90
5711;DHT22;61291;52.524;13.422;2022-12-18T16:24:52;-1.60;99.90
5711;DHT22;61291;52.524;13.422;2022-12-18T16:27:19;-1.60;99.90
5711;DHT22;61291;52.524;13.422;2022-12-18T16:29:44;-1.60;99.90
5711;DHT22;61291;52.524;13.422;2022-12-18T16:32:16;-1.60;99.90
5711;DHT22;61291;52.524;13.422;2022-12-18T16:34:42;-1.60;99.90
5711;DHT22;61291;52.524;13.422;2022-12-18T16:37:10;-1.60;99.90
5711;DHT22;61291;52.524;13.422;2022-12-18T16:39:36;-1.50;99.90
5711;DHT22;61291;52.524;13.422;2022-12-18T16:42:04;-1.50;99.90
5711;DHT22;61291;52.524;13.422;2022-12-18T16:44:30;-1.50;99.90
5711;DHT22;61291;52.524;13.422;2022-12-18T16:47:08;-1.50;99.90
5711;DHT22;61291;52.524;13.422;2022-12-18T16:49:33;-1.50;99.90
5711;DHT22;61291;52.524;13.422;2022-12-18T16:51:59;-1.60;99.90
5711;DHT22;61291;52.524;13.422;2022-12-18T16:54:24;-1.70;99.90
5711;DHT22;61291;52.524;13.422;2022-12-18T16:56:50;-1.90;99.90
5711;DHT22;61291;52.524;13.422;2022-12-18T16:59:16;-2.00;99.90
5711;DHT22;61291;52.524;13.422;2022-12-18T17:01:41;-2.10;99.90